Time;durP1;ratioP1;P1;durP2;ratioP2;P2;SDS_P1;SDS_P2;PMS_P1;PMS_P2;Temp;Humidity;BMP_temperature;BMP_pressure;BME280_temperature;BME280_humidity;BME280_pressure;Samples;Min_cycle;Max_cycle;Signal;HPM_P1;HPM_P2
2022/08/02 00:01:29;;;;;;;1.55;0.50;;;;;;;21.27;49.44;101328.25;5143048;28;20058;-83
2022/08/02 00:03:59;;;;;;;0.60;0.52;;;;;;;21.27;48.83;101318.47;5150825;28;20039;-83
2022/08/02 00:06:31;;;;;;;2.58;1.48;;;;;;;21.22;48.66;101312.53;5155296;28;20043;-82
2022/08/02 00:09:03;;;;;;;0.30;0.30;;;;;;;21.15;49.04;101319.22;5167368;28;20030;-82
2022/08/02 00:11:34;;;;;;;0.20;0.20;;;;;;;21.10;50.16;101321.31;5145312;28;20386;-83
2022/08/02 00:14:04;;;;;;;0.73;0.63;;;;;;;21.07;49.25;101317.03;5153981;28;20500;-82
2022/08/02 00:16:35;;;;;;;0.40;0.40;;;;;;;21.01;49.76;101318.28;5180965;28;20053;-83
2022/08/02 00:19:06;;;;;;;0.40;0.40;;;;;;;20.99;49.98;101322.00;5138989;28;20333;-83
2022/08/02 00:21:37;;;;;;;0.40;0.40;;;;;;;20.94;50.07;101316.94;5138124;28;20042;-82
2022/08/02 00:24:10;;;;;;;0.20;0.20;;;;;;;20.88;51.02;101310.16;5156422;28;20114;-83
2022/08/02 00:26:41;;;;;;;0.20;0.20;;;;;;;20.90;50.34;101310.06;5172989;28;20061;-82
2022/08/02 00:29:11;;;;;;;2.63;0.30;;;;;;;20.86;50.96;101321.88;5178282;28;20038;-83
2022/08/02 00:31:42;;;;;;;0.20;0.20;;;;;;;20.83;50.76;101314.06;5138054;28;20122;-84
2022/08/02 00:34:13;;;;;;;0.22;0.22;;;;;;;20.80;50.80;101307.09;5133157;28;20030;-83
2022/08/02 00:36:44;;;;;;;0.28;0.28;;;;;;;20.79;51.18;101302.72;5143572;28;20050;-83
2022/08/02 00:39:14;;;;;;;0.30;0.30;;;;;;;20.77;50.80;101303.78;5162903;28;20041;-83
2022/08/02 00:41:48;;;;;;;0.20;0.20;;;;;;;20.74;51.36;101297.66;5167453;28;20038;-83
2022/08/02 00:44:20;;;;;;;0.20;0.20;;;;;;;20.75;50.00;101295.84;5155995;28;20037;-83
2022/08/02 00:46:50;;;;;;;17.73;0.95;;;;;;;20.73;50.44;101303.94;5112752;28;20109;-83
2022/08/02 00:49:24;;;;;;;0.60;0.60;;;;;;;20.71;50.56;101294.31;5145622;28;20873;-82
2022/08/02 00:51:57;;;;;;;0.40;0.40;;;;;;;20.66;51.40;101297.25;5122159;28;20642;-83
2022/08/02 00:54:27;;;;;;;0.30;0.30;;;;;;;20.67;50.80;101298.09;5113613;28;20051;-80
2022/08/02 00:56:58;;;;;;;0.60;0.47;;;;;;;20.64;50.37;101304.47;5107915;28;20038;-80
2022/08/02 00:59:28;;;;;;;0.30;0.30;;;;;;;20.66;50.15;101302.56;5154466;28;20026;-80
2022/08/02 01:02:02;;;;;;;0.28;0.28;;;;;;;20.60;50.88;101302.97;5127991;28;20237;-81
2022/08/02 01:04:33;;;;;;;0.40;0.40;;;;;;;20.59;50.01;101302.06;5106955;28;20031;-81
2022/08/02 01:07:06;;;;;;;1.17;0.52;;;;;;;20.59;50.53;101301.25;5139880;28;20038;-81
2022/08/02 01:09:37;;;;;;;0.30;0.30;;;;;;;20.53;50.67;101306.94;5147567;28;20413;-80
2022/08/02 01:12:11;;;;;;;0.93;0.85;;;;;;;20.53;50.76;101313.13;5114881;28;20043;-80
2022/08/02 01:14:47;;;;;;;1.15;0.65;;;;;;;20.48;51.53;101309.00;5104799;28;20034;-81
2022/08/02 01:17:58;;;;;;;4.03;1.27;;;;;;;20.42;51.43;101305.78;5124144;28;20049;-81
2022/08/02 01:20:41;;;;;;;0.35;0.35;;;;;;;20.42;50.98;101300.44;5126496;28;20050;-81
2022/08/02 01:23:31;;;;;;;;;;;;;;;20.40;51.87;101299.66;5127679;28;20038;-81
2022/08/02 01:26:20;;;;;;;0.30;0.30;;;;;;;20.38;51.54;101290.06;5142348;28;19961;-80
2022/08/02 01:29:10;;;;;;;0.60;0.60;;;;;;;20.35;51.74;101288.44;5147304;28;20097;-81
2022/08/02 01:31:58;;;;;;;0.30;0.30;;;;;;;20.39;50.48;101289.09;5132327;28;20045;-80
2022/08/02 01:35:02;;;;;;;2.50;0.43;;;;;;;20.35;50.91;101283.09;5144323;28;20030;-81
2022/08/02 01:37:53;;;;;;;0.20;0.20;;;;;;;20.30;51.15;101274.50;5136737;28;20030;-82
2022/08/02 01:40:38;;;;;;;0.30;0.30;;;;;;;20.27;51.11;101275.56;5159476;28;20050;-81
2022/08/02 01:43:13;;;;;;;0.70;0.70;;;;;;;20.24;51.28;101274.88;5142697;28;20398;-81
2022/08/02 01:45:44;;;;;;;0.50;0.50;;;;;;;20.28;50.40;101274.59;5131825;28;20070;-81
2022/08/02 01:48:16;;;;;;;0.40;0.40;;;;;;;20.23;51.16;101273.16;5129982;28;20030;-81
2022/08/02 01:50:50;;;;;;;0.20;0.20;;;;;;;20.19;52.09;101271.63;5134836;28;20034;-82
2022/08/02 01:53:21;;;;;;;2.65;0.65;;;;;;;20.16;51.47;101262.03;5125353;28;20109;-82
2022/08/02 01:55:54;;;;;;;0.57;0.57;;;;;;;20.15;51.65;101264.75;5144102;28;20076;-82
2022/08/02 01:58:26;;;;;;;;;;;;;;;20.13;51.94;101272.84;5148445;28;20050;-81
2022/08/02 02:00:59;;;;;;;0.65;0.65;;;;;;;20.12;52.05;101276.47;5141129;28;19921;-81
2022/08/02 02:03:31;;;;;;;0.38;0.38;;;;;;;20.17;51.26;101270.88;5157954;28;20022;-82
2022/08/02 02:06:04;;;;;;;0.32;0.32;;;;;;;20.10;51.56;101268.56;5135733;28;20046;-81
2022/08/02 02:08:42;;;;;;;0.75;0.75;;;;;;;20.12;50.95;101274.63;5143409;28;20034;-82
2022/08/02 02:11:12;;;;;;;0.25;0.25;;;;;;;20.06;52.41;101271.50;5170121;28;20042;-81
2022/08/02 02:13:44;;;;;;;0.30;0.30;;;;;;;20.02;51.77;101269.94;5158748;28;20042;-82
2022/08/02 02:16:16;;;;;;;0.30;0.30;;;;;;;20.01;52.07;101260.25;5129040;28;20478;-82
2022/08/02 02:18:49;;;;;;;0.57;0.47;;;;;;;20.02;51.16;101260.16;5147007;28;20034;-81
2022/08/02 02:21:19;;;;;;;;;;;;;;;19.99;51.56;101262.16;5133442;28;20056;-81
2022/08/02 02:23:50;;;;;;;0.43;0.43;;;;;;;19.93;51.99;101252.72;5137139;28;20396;-81
2022/08/02 02:26:26;;;;;;;0.40;0.40;;;;;;;19.91;51.93;101262.59;5160102;28;20129;-82
2022/08/02 02:29:01;;;;;;;0.30;0.30;;;;;;;19.88;51.89;101262.75;5144740;28;20750;-82
2022/08/02 02:31:36;;;;;;;0.95;0.93;;;;;;;19.85;51.87;101246.97;5148994;28;20072;-80
2022/08/02 02:34:25;;;;;;;0.60;0.60;;;;;;;19.82;51.90;101255.97;5175852;28;20026;-80
2022/08/02 02:37:01;;;;;;;3.03;1.05;;;;;;;19.79;52.40;101254.31;5159438;28;20511;-81
2022/08/02 02:39:33;;;;;;;2.30;0.57;;;;;;;19.76;52.36;101249.19;5169233;28;20034;-81
2022/08/02 02:42:09;;;;;;;0.43;0.43;;;;;;;19.75;52.18;101250.13;5143617;28;20137;-81
2022/08/02 02:44:44;;;;;;;0.40;0.40;;;;;;;19.72;52.52;101246.78;5130806;28;20062;-81
2022/08/02 02:47:17;;;;;;;0.30;0.30;;;;;;;19.69;52.45;101250.50;5127967;28;20070;-81
2022/08/02 02:49:50;;;;;;;;;;;;;;;19.69;52.21;101247.81;5153121;28;20298;-80
2022/08/02 02:52:21;;;;;;;2.20;1.65;;;;;;;19.67;52.00;101249.72;5167749;28;19917;-81
2022/08/02 02:54:53;;;;;;;0.65;0.63;;;;;;;19.63;52.28;101233.06;5144757;28;20033;-81
2022/08/02 02:57:24;;;;;;;0.50;0.50;;;;;;;19.61;52.37;101237.59;5194147;28;20038;-80
2022/08/02 02:59:55;;;;;;;0.50;0.50;;;;;;;19.59;52.13;101235.97;5146748;28;20133;-81
2022/08/02 03:02:30;;;;;;;0.40;0.40;;;;;;;19.54;52.44;101230.06;5120371;28;20024;-81
2022/08/02 03:05:09;;;;;;;0.32;0.32;;;;;;;19.50;53.03;101227.56;5136452;28;20078;-81
2022/08/02 03:07:45;;;;;;;0.40;0.40;;;;;;;19.48;52.76;101233.94;5122830;28;20495;-81
2022/08/02 03:10:16;;;;;;;0.50;0.50;;;;;;;19.46;52.99;101231.34;5141355;28;20112;-82
2022/08/02 03:12:50;;;;;;;0.30;0.30;;;;;;;19.46;52.47;101236.66;5164872;28;20034;-82
2022/08/02 03:15:22;;;;;;;0.47;0.47;;;;;;;19.46;52.38;101231.34;5149496;28;20046;-81
2022/08/02 03:17:53;;;;;;;0.30;0.30;;;;;;;19.45;52.21;101229.66;5182315;28;20034;-81
2022/08/02 03:20:24;;;;;;;0.32;0.32;;;;;;;19.42;52.50;101228.97;5155303;28;20243;-81
2022/08/02 03:22:54;;;;;;;0.30;0.30;;;;;;;19.40;52.52;101228.19;5109782;28;20058;-82
2022/08/02 03:25:25;;;;;;;1.05;0.93;;;;;;;19.37;52.84;101237.22;5129021;28;20506;-81
2022/08/02 03:27:55;;;;;;;0.30;0.30;;;;;;;19.37;52.63;101225.69;5128097;28;20034;-82
2022/08/02 03:30:29;;;;;;;1.85;0.70;;;;;;;19.35;52.28;101223.97;5132056;28;20473;-80
2022/08/02 03:32:59;;;;;;;0.40;0.40;;;;;;;19.30;53.46;101225.16;5130874;28;20129;-82
2022/08/02 03:35:30;;;;;;;0.60;0.60;;;;;;;19.29;52.28;101212.84;5139292;28;20125;-82
2022/08/02 03:38:02;;;;;;;0.73;0.73;;;;;;;19.25;52.86;101216.59;5166620;28;20041;-81
2022/08/02 03:40:35;;;;;;;0.20;0.20;;;;;;;19.23;53.62;101218.47;5120671;28;20056;-82
2022/08/02 03:43:08;;;;;;;0.90;0.77;;;;;;;19.18;53.61;101214.28;5137144;28;20034;-81
2022/08/02 03:45:42;;;;;;;0.38;0.38;;;;;;;19.16;53.22;101216.16;5159294;28;20596;-81
2022/08/02 03:48:13;;;;;;;0.30;0.30;;;;;;;19.16;53.30;101217.97;5141809;28;20054;-81
2022/08/02 03:50:47;;;;;;;1.13;0.40;;;;;;;19.12;53.62;101217.28;5156311;28;20046;-81
2022/08/02 03:53:18;;;;;;;;;;;;;;;19.10;53.02;101215.63;5146392;28;20037;-81
2022/08/02 03:55:49;;;;;;;0.30;0.30;;;;;;;19.12;53.04;101216.41;5161969;28;19993;-81
2022/08/02 03:58:23;;;;;;;0.30;0.30;;;;;;;19.07;53.28;101231.78;5131697;28;20093;-81
2022/08/02 04:00:55;;;;;;;0.65;0.65;;;;;;;19.03;53.43;101223.97;5136888;28;20043;-80
2022/08/02 04:03:26;;;;;;;0.40;0.40;;;;;;;19.02;53.66;101226.72;5148248;28;20026;-81
2022/08/02 04:05:56;;;;;;;0.55;0.55;;;;;;;18.98;53.61;101215.38;5116335;28;20045;-81
2022/08/02 04:08:30;;;;;;;0.47;0.47;;;;;;;18.98;52.99;101214.50;5121543;28;20605;-81
2022/08/02 04:13:54;;;;;;;0.65;0.65;;;;;;;18.99;52.43;101214.44;5124255;28;20582;-80
2022/08/02 04:16:52;;;;;;;0.30;0.30;;;;;;;18.93;53.04;101217.41;5140522;28;20046;-82
2022/08/02 04:19:52;;;;;;;0.60;0.60;;;;;;;18.88;53.57;101225.59;5133894;28;20034;-82
2022/08/02 04:22:30;;;;;;;0.38;0.38;;;;;;;18.87;52.80;101223.03;5148853;28;20038;-82
2022/08/02 04:25:06;;;;;;;0.60;0.60;;;;;;;18.88;52.95;101225.59;5142851;28;20081;-80
2022/08/02 04:27:39;;;;;;;0.30;0.30;;;;;;;18.88;53.02;101230.09;5141055;28;20066;-82
2022/08/02 04:30:10;;;;;;;3.78;0.68;;;;;;;18.86;53.10;101224.84;5144113;28;20101;-83
2022/08/02 04:32:43;;;;;;;0.70;0.70;;;;;;;18.82;53.41;101231.25;5127671;28;20165;-80
2022/08/02 04:35:17;;;;;;;0.75;0.75;;;;;;;18.78;53.72;101229.72;5127420;28;20090;-82
2022/08/02 04:37:48;;;;;;;0.93;0.60;;;;;;;18.76;53.59;101238.72;5139252;28;20042;-81
2022/08/02 04:40:18;;;;;;;2.50;0.43;;;;;;;18.73;53.90;101231.75;5124444;28;20046;-82
2022/08/02 04:42:49;;;;;;;1.67;0.95;;;;;;;18.73;53.41;101239.72;5145129;28;20546;-82
2022/08/02 04:45:20;;;;;;;0.52;0.52;;;;;;;18.76;53.47;101231.59;5126610;28;20123;-81
2022/08/02 04:47:51;;;;;;;0.40;0.40;;;;;;;18.70;54.18;101230.13;5164921;28;20034;-80
2022/08/02 04:50:22;;;;;;;1.55;0.85;;;;;;;18.70;53.52;101239.91;5143846;28;20045;-81
2022/08/02 04:52:52;;;;;;;0.47;0.47;;;;;;;18.69;54.11;101241.69;5143813;28;20102;-81
2022/08/02 04:55:27;;;;;;;0.30;0.30;;;;;;;18.70;53.42;101248.72;5127435;28;20495;-80
2022/08/02 04:57:58;;;;;;;1.35;0.77;;;;;;;18.71;53.76;101250.44;5149055;28;20339;-80
2022/08/02 05:00:29;;;;;;;0.60;0.60;;;;;;;18.67;54.52;101254.22;5177590;28;20046;-80
2022/08/02 05:03:00;;;;;;;1.38;1.27;;;;;;;18.67;54.46;101248.03;5153929;28;20053;-81
2022/08/02 05:05:31;;;;;;;1.52;1.42;;;;;;;18.67;54.82;101242.72;5130753;28;20490;-81
2022/08/02 05:08:02;;;;;;;0.68;0.68;;;;;;;18.70;54.04;101242.56;5147628;28;20406;-81
2022/08/02 05:10:33;;;;;;;0.50;0.50;;;;;;;18.72;54.42;101238.00;5137964;28;20034;-81
2022/08/02 05:13:04;;;;;;;5.93;0.75;;;;;;;18.73;54.61;101242.38;5142068;28;20038;-81
2022/08/02 05:15:35;;;;;;;0.45;0.45;;;;;;;18.75;54.12;101240.50;5159413;28;20058;-82
2022/08/02 05:18:09;;;;;;;0.57;0.57;;;;;;;18.78;54.41;101231.50;5133362;28;20338;-81
2022/08/02 05:20:39;;;;;;;0.28;0.28;;;;;;;18.79;54.52;101233.22;5155135;28;20055;-80
2022/08/02 05:23:10;;;;;;;0.22;0.22;;;;;;;18.81;54.81;101234.84;5111843;28;20038;-81
2022/08/02 05:25:40;;;;;;;0.85;0.85;;;;;;;18.83;54.94;101232.13;5134740;28;20045;-80
2022/08/02 05:28:11;;;;;;;0.32;0.32;;;;;;;18.84;54.84;101226.72;5155782;28;20347;-80
2022/08/02 05:30:42;;;;;;;0.68;0.52;;;;;;;18.86;54.39;101227.50;5151801;28;20061;-80
2022/08/02 05:33:12;;;;;;;0.73;0.50;;;;;;;18.88;54.68;101227.44;5116433;28;20045;-81
2022/08/02 05:35:49;;;;;;;0.40;0.40;;;;;;;18.89;54.55;101231.81;5133533;28;21609;-81
2022/08/02 05:38:19;;;;;;;0.50;0.50;;;;;;;18.92;54.54;101233.44;5132560;28;20030;-81
2022/08/02 05:40:50;;;;;;;5.40;2.05;;;;;;;18.95;54.51;101235.97;5127605;28;20081;-80
2022/08/02 05:43:22;;;;;;;0.57;0.57;;;;;;;18.95;54.61;101235.97;5149422;28;20102;-81
2022/08/02 05:45:52;;;;;;;3.40;0.55;;;;;;;18.99;54.38;101234.84;5149428;28;20042;-81
2022/08/02 05:48:23;;;;;;;0.50;0.50;;;;;;;19.01;54.35;101236.47;5134596;28;20060;-81
2022/08/02 05:51:04;;;;;;;5.68;2.05;;;;;;;19.03;54.77;101233.75;5152461;28;20039;-81
2022/08/02 05:53:43;;;;;;;0.40;0.40;;;;;;;19.08;54.54;101230.84;5159521;28;20033;-81
2022/08/02 05:56:31;;;;;;;0.60;0.60;;;;;;;19.08;54.75;101226.38;5174534;28;20248;-81
2022/08/02 05:59:16;;;;;;;0.30;0.30;;;;;;;19.09;54.59;101227.25;5150977;28;20026;-81
2022/08/02 06:01:51;;;;;;;10.73;1.38;;;;;;;19.14;54.86;101226.03;5154805;28;20524;-81
2022/08/02 06:04:34;;;;;;;0.22;0.22;;;;;;;19.15;54.77;101227.75;5146154;28;20114;-81
2022/08/02 06:07:11;;;;;;;0.50;0.50;;;;;;;19.17;55.03;101231.19;5132636;28;20128;-81
2022/08/02 06:09:43;;;;;;;1.25;0.82;;;;;;;19.21;55.10;101231.88;5154345;28;20049;-81
2022/08/02 06:12:16;;;;;;;0.30;0.30;;;;;;;19.21;55.12;101234.53;5162663;28;20042;-82
2022/08/02 06:14:48;;;;;;;0.55;0.55;;;;;;;19.24;55.13;101230.84;5164822;28;20045;-81
2022/08/02 06:17:23;;;;;;;0.22;0.22;;;;;;;19.29;56.10;101234.13;5151122;28;20720;-81
2022/08/02 06:19:57;;;;;;;1.05;1.05;;;;;;;19.27;55.55;101236.84;5151900;28;20422;-81
2022/08/02 06:22:29;;;;;;;0.30;0.30;;;;;;;19.30;55.63;101233.16;5188033;28;20461;-81
2022/08/02 06:25:01;;;;;;;1.10;0.50;;;;;;;19.31;55.58;101229.53;5137222;28;20061;-81
2022/08/02 06:27:36;;;;;;;0.70;0.68;;;;;;;19.34;55.72;101230.22;5157307;28;20528;-81
2022/08/02 06:30:09;;;;;;;0.77;0.77;;;;;;;19.37;55.97;101226.56;5131874;28;20046;-81
2022/08/02 06:32:43;;;;;;;0.45;0.45;;;;;;;19.41;55.92;101222.78;5115912;28;20046;-81
2022/08/02 06:35:14;;;;;;;0.75;0.75;;;;;;;19.43;56.46;101228.88;5116941;28;20167;-81
2022/08/02 06:38:00;;;;;;;0.30;0.30;;;;;;;19.44;56.12;101227.94;5133167;28;20077;-81
2022/08/02 06:40:35;;;;;;;0.40;0.40;;;;;;;19.47;55.58;101227.75;5166509;28;20426;-81
2022/08/02 06:43:12;;;;;;;0.30;0.30;;;;;;;19.46;56.34;101228.69;5155179;28;20026;-81
2022/08/02 06:45:43;;;;;;;0.60;0.60;;;;;;;19.52;56.44;101224.81;5151675;28;20050;-81
2022/08/02 06:48:14;;;;;;;0.20;0.20;;;;;;;19.55;55.97;101229.97;5144839;28;20022;-81
2022/08/02 06:50:44;;;;;;;0.43;0.43;;;;;;;19.57;56.43;101221.91;5153385;28;20069;-81
2022/08/02 06:53:15;;;;;;;0.30;0.30;;;;;;;19.62;55.95;101220.69;5134641;28;20065;-81
2022/08/02 06:55:45;;;;;;;0.73;0.73;;;;;;;19.66;56.46;101224.03;5151151;28;20030;-81
2022/08/02 06:58:19;;;;;;;0.20;0.20;;;;;;;19.72;56.04;101221.00;5150775;28;20035;-81
2022/08/02 07:00:50;;;;;;;1.95;0.93;;;;;;;19.74;56.56;101212.97;5134366;28;20045;-81
2022/08/02 07:03:21;;;;;;;0.30;0.30;;;;;;;19.77;57.66;101215.41;5154503;28;20042;-82
2022/08/02 07:05:52;;;;;;;0.28;0.28;;;;;;;19.82;56.37;101213.38;5135177;28;20042;-81
2022/08/02 07:08:23;;;;;;;0.70;0.70;;;;;;;19.85;58.63;101221.19;5151035;28;20479;-81
2022/08/02 07:10:57;;;;;;;0.30;0.30;;;;;;;19.94;56.82;101225.13;5128431;28;20346;-81
2022/08/02 07:13:28;;;;;;;0.25;0.25;;;;;;;19.94;56.58;101225.97;5137231;28;20037;-81
2022/08/02 07:15:58;;;;;;;0.77;0.52;;;;;;;20.02;56.15;101228.22;5133523;28;20043;-81
2022/08/02 07:18:29;;;;;;;1.65;1.25;;;;;;;20.10;56.25;101230.41;5150309;28;20038;-81
2022/08/02 07:21:00;;;;;;;2.20;0.68;;;;;;;20.19;56.59;101223.69;5156610;28;20098;-81
2022/08/02 07:23:31;;;;;;;0.32;0.32;;;;;;;20.21;56.54;101216.44;5170380;28;20017;-80
2022/08/02 07:26:02;;;;;;;0.65;0.65;;;;;;;20.17;57.72;101221.09;5166101;28;20038;-81
2022/08/02 07:28:33;;;;;;;0.90;0.68;;;;;;;20.13;58.10;101225.75;5130689;28;20110;-81
2022/08/02 07:31:06;;;;;;;0.38;0.38;;;;;;;20.28;57.05;101223.13;5121620;28;20047;-80
2022/08/02 07:33:37;;;;;;;0.93;0.93;;;;;;;20.21;57.88;101211.09;5112899;28;20027;-81
2022/08/02 07:36:08;;;;;;;0.40;0.40;;;;;;;20.26;57.89;101212.53;5136194;28;20450;-82
2022/08/02 07:38:38;;;;;;;0.30;0.30;;;;;;;20.31;57.75;101211.44;5161730;28;20030;-81
2022/08/02 07:41:12;;;;;;;0.50;0.50;;;;;;;20.35;57.48;101216.47;5132741;28;20049;-81
2022/08/02 07:43:45;;;;;;;0.95;0.95;;;;;;;20.56;57.18;101216.97;5149397;28;20036;-81
2022/08/02 07:46:16;;;;;;;3.33;1.23;;;;;;;20.50;57.88;101216.50;5137166;28;20046;-81
2022/08/02 07:48:47;;;;;;;0.30;0.30;;;;;;;20.51;57.49;101215.53;5149149;28;20034;-81
2022/08/02 07:51:18;;;;;;;0.70;0.70;;;;;;;20.58;57.71;101214.22;5150130;28;20094;-80
2022/08/02 07:53:48;;;;;;;5.68;0.88;;;;;;;20.64;58.04;101208.50;5131751;28;20122;-80
2022/08/02 07:56:19;;;;;;;1.00;0.60;;;;;;;20.66;58.47;101211.94;5149768;28;20045;-80
2022/08/02 07:58:50;;;;;;;0.30;0.30;;;;;;;20.73;57.73;101215.13;5169733;28;20034;-80
2022/08/02 08:01:23;;;;;;;0.57;0.57;;;;;;;20.74;58.22;101208.84;5154322;28;20143;-79
2022/08/02 08:03:53;;;;;;;0.40;0.40;;;;;;;20.81;58.08;101215.50;5188671;28;20022;-80
2022/08/02 08:06:27;;;;;;;0.30;0.30;;;;;;;20.88;57.77;101215.94;5133633;28;20045;-80
2022/08/02 08:08:59;;;;;;;0.35;0.35;;;;;;;20.88;58.04;101208.81;5143131;28;20046;-80
2022/08/02 08:11:29;;;;;;;1.17;0.73;;;;;;;20.93;58.52;101203.19;5140330;28;20348;-80
2022/08/02 08:14:00;;;;;;;0.57;0.57;;;;;;;20.97;58.15;101204.69;5124069;28;20491;-80
2022/08/02 08:16:31;;;;;;;0.35;0.35;;;;;;;20.97;59.35;101210.03;5152041;28;20418;-81
2022/08/02 08:19:03;;;;;;;0.50;0.50;;;;;;;21.01;59.28;101200.03;5135370;28;20398;-80
2022/08/02 08:21:34;;;;;;;6.25;2.22;;;;;;;21.07;58.60;101208.50;5172572;28;20053;-80
2022/08/02 08:24:09;;;;;;;0.40;0.40;;;;;;;21.15;58.88;101207.16;5148281;28;20577;-80
2022/08/02 08:26:39;;;;;;;0.40;0.40;;;;;;;21.17;58.92;101205.25;5150000;28;20034;-80
2022/08/02 08:29:10;;;;;;;0.47;0.47;;;;;;;21.22;59.16;101209.34;5143004;28;20093;-80
2022/08/02 08:31:41;;;;;;;0.40;0.40;;;;;;;21.32;58.67;101206.09;5145836;28;20053;-80
2022/08/02 08:34:12;;;;;;;1.00;0.30;;;;;;;21.34;58.91;101201.47;5160528;28;20046;-81
2022/08/02 08:36:43;;;;;;;0.25;0.25;;;;;;;21.38;59.29;101195.84;5148943;28;20116;-81
2022/08/02 08:39:14;;;;;;;0.60;0.60;;;;;;;21.43;58.03;101194.69;5151889;28;20446;-81
2022/08/02 08:41:45;;;;;;;0.68;0.68;;;;;;;21.50;58.08;101190.66;5182041;28;20065;-81
2022/08/02 08:44:16;;;;;;;1.10;0.50;;;;;;;21.59;58.52;101186.53;5149359;28;20045;-81
2022/08/02 08:46:48;;;;;;;2.55;0.90;;;;;;;21.58;58.28;101192.84;5165124;28;20038;-80
2022/08/02 08:49:25;;;;;;;0.40;0.40;;;;;;;21.64;58.44;101195.97;5170036;28;20578;-81
2022/08/02 08:51:59;;;;;;;5.18;1.40;;;;;;;21.67;58.05;101194.91;5171242;28;20098;-80
2022/08/02 08:54:31;;;;;;;0.40;0.40;;;;;;;21.74;58.79;101193.53;5147952;28;20102;-80
2022/08/02 08:57:04;;;;;;;0.40;0.40;;;;;;;21.82;58.15;101201.03;5158729;28;20042;-81
2022/08/02 08:59:35;;;;;;;0.30;0.30;;;;;;;21.85;58.19;101188.34;5134054;28;20048;-80
2022/08/02 09:02:06;;;;;;;0.68;0.68;;;;;;;21.95;57.81;101191.22;5163829;28;20047;-80
2022/08/02 09:04:37;;;;;;;0.63;0.52;;;;;;;21.98;57.80;101175.00;5127987;28;20038;-80
2022/08/02 09:07:07;;;;;;;0.10;0.10;;;;;;;22.09;58.05;101176.09;5156207;28;20053;-80
2022/08/02 09:09:38;;;;;;;0.50;0.50;;;;;;;22.15;57.69;101173.84;5129334;28;20034;-80
2022/08/02 09:12:13;;;;;;;0.68;0.68;;;;;;;22.24;57.57;101175.03;5153369;28;20433;-80
2022/08/02 09:14:45;;;;;;;0.30;0.30;;;;;;;22.35;57.05;101170.75;5145226;28;20038;-80
2022/08/02 09:17:16;;;;;;;0.45;0.45;;;;;;;22.40;57.23;101174.00;5147883;28;20046;-80
2022/08/02 09:20:04;;;;;;;0.22;0.22;;;;;;;22.50;56.71;101175.06;5150450;28;20045;-80
2022/08/02 09:22:35;;;;;;;0.32;0.32;;;;;;;22.61;56.20;101167.13;5132032;28;20031;-81
2022/08/02 09:25:14;;;;;;;0.35;0.35;;;;;;;22.72;56.10;101173.53;5142580;28;20088;-80
2022/08/02 09:27:47;;;;;;;0.30;0.30;;;;;;;22.76;55.12;101180.38;5147525;28;20559;-80
2022/08/02 09:30:18;;;;;;;0.20;0.20;;;;;;;22.80;54.97;101176.50;5123600;28;20047;-80
2022/08/02 09:32:49;;;;;;;1.10;0.80;;;;;;;22.88;55.24;101166.09;5141275;28;20130;-81
2022/08/02 09:35:41;;;;;;;0.35;0.35;;;;;;;22.91;54.78;101165.03;5114046;28;20122;-80
2022/08/02 09:38:13;;;;;;;0.43;0.43;;;;;;;22.92;53.98;101172.09;5161629;28;20039;-80
2022/08/02 09:40:43;;;;;;;0.37;0.37;;;;;;;22.90;54.49;101174.88;5153452;28;20050;-80
2022/08/02 09:43:16;;;;;;;1.38;0.95;;;;;;;22.97;54.49;101174.44;5131076;28;20618;-80
2022/08/02 09:45:46;;;;;;;0.20;0.20;;;;;;;23.01;54.32;101160.72;5145488;28;20042;-81
2022/08/02 09:48:17;;;;;;;0.30;0.30;;;;;;;23.07;54.26;101168.28;5178589;28;20045;-81
2022/08/02 09:50:48;;;;;;;0.63;0.63;;;;;;;23.16;53.50;101166.78;5141479;28;20039;-81
2022/08/02 09:53:19;;;;;;;0.32;0.32;;;;;;;23.26;53.36;101165.16;5145323;28;20054;-81
2022/08/02 09:55:56;;;;;;;0.55;0.55;;;;;;;23.35;52.77;101160.94;5143165;28;20120;-81
2022/08/02 09:58:27;;;;;;;0.70;0.70;;;;;;;23.46;52.67;101167.34;5144210;28;20487;-81
2022/08/02 10:00:57;;;;;;;0.38;0.38;;;;;;;23.44;51.21;101162.06;5146748;28;20053;-81
2022/08/02 10:03:28;;;;;;;0.20;0.20;;;;;;;23.53;51.08;101157.88;5131638;28;20035;-80
2022/08/02 10:06:00;;;;;;;0.40;0.40;;;;;;;23.62;51.96;101167.00;5131415;28;20042;-80
2022/08/02 10:08:32;;;;;;;0.43;0.43;;;;;;;23.67;52.08;101164.88;5161046;28;20034;-81
2022/08/02 10:11:05;;;;;;;0.30;0.30;;;;;;;23.73;50.56;101161.72;5121316;28;20122;-81
2022/08/02 10:13:36;;;;;;;0.40;0.40;;;;;;;23.78;50.12;101156.00;5116092;28;20088;-81
2022/08/02 10:16:08;;;;;;;0.38;0.38;;;;;;;23.87;50.83;101150.78;5149378;28;20066;-81
2022/08/02 10:18:40;;;;;;;0.20;0.20;;;;;;;23.88;51.06;101147.13;5146424;28;20033;-81
2022/08/02 10:21:14;;;;;;;0.20;0.20;;;;;;;23.99;51.79;101145.50;5152379;28;20038;-81
2022/08/02 10:23:46;;;;;;;0.40;0.40;;;;;;;24.11;50.82;101155.25;5136114;28;20038;-80
2022/08/02 10:26:19;;;;;;;0.20;0.20;;;;;;;24.11;50.70;101146.38;5151690;28;20099;-81
2022/08/02 10:28:52;;;;;;;0.40;0.40;;;;;;;24.23;50.95;101147.22;5141090;28;20045;-82
2022/08/02 10:31:29;;;;;;;0.30;0.30;;;;;;;24.18;49.98;101143.06;5146229;28;20065;-81
2022/08/02 10:34:03;;;;;;;0.40;0.40;;;;;;;24.14;49.79;101144.31;5159892;28;20090;-80
2022/08/02 10:36:38;;;;;;;0.30;0.30;;;;;;;24.23;49.35;101140.03;5146533;28;20050;-82
2022/08/02 10:39:09;;;;;;;1.20;0.60;;;;;;;24.23;50.05;101140.03;5156214;28;20073;-82
2022/08/02 10:41:51;;;;;;;1.10;1.00;;;;;;;24.37;48.65;101136.25;5183360;28;20073;-81
2022/08/02 10:44:31;;;;;;;0.30;0.30;;;;;;;24.36;47.89;101131.88;5172534;28;20093;-82
2022/08/02 10:47:15;;;;;;;0.30;0.30;;;;;;;24.38;48.00;101126.41;5169897;28;20042;-83
2022/08/02 10:49:52;;;;;;;2.17;1.10;;;;;;;24.53;47.54;101130.56;5168798;28;20027;-83
2022/08/02 10:52:27;;;;;;;0.30;0.30;;;;;;;24.65;47.94;101131.41;5138454;28;20038;-83
2022/08/02 10:55:11;;;;;;;0.20;0.20;;;;;;;24.65;48.48;101139.44;5165137;28;20026;-83
2022/08/02 10:57:41;;;;;;;0.63;0.63;;;;;;;24.78;46.56;101129.44;5171730;28;20409;-83
2022/08/02 11:00:26;;;;;;;0.20;0.20;;;;;;;24.71;48.10;101124.72;5134369;28;21031;-83
2022/08/02 11:02:59;;;;;;;0.40;0.40;;;;;;;24.89;48.04;101120.50;5126162;28;20081;-83
2022/08/02 11:05:33;;;;;;;1.27;1.17;;;;;;;25.22;46.63;101125.94;5117959;28;20035;-83
2022/08/02 11:08:21;;;;;;;0.45;0.45;;;;;;;25.11;47.61;101130.34;5153354;28;20088;-83
2022/08/02 11:10:59;;;;;;;0.30;0.30;;;;;;;25.22;47.18;101121.41;5125783;28;20523;-83
2022/08/02 11:13:29;;;;;;;0.28;0.28;;;;;;;25.13;47.86;101122.16;5139979;28;20097;-83
2022/08/02 11:16:06;;;;;;;0.40;0.40;;;;;;;25.11;47.36;101111.56;5130962;28;20082;-83
2022/08/02 11:18:43;;;;;;;0.40;0.40;;;;;;;25.19;46.99;101123.47;5129110;28;20034;-83
2022/08/02 11:21:28;;;;;;;0.47;0.47;;;;;;;25.28;45.98;101125.41;5120247;28;20205;-83
2022/08/02 11:24:24;;;;;;;0.30;0.30;;;;;;;25.30;46.11;101120.78;5149407;28;20216;-83
2022/08/02 11:26:57;;;;;;;0.50;0.50;;;;;;;25.41;45.51;101126.09;5136882;28;20035;-83
2022/08/02 11:29:31;;;;;;;0.20;0.20;;;;;;;25.35;46.11;101123.91;5137380;28;20038;-82
2022/08/02 11:32:08;;;;;;;0.20;0.20;;;;;;;25.48;44.16;101125.63;5135395;28;20050;-82
2022/08/02 11:34:39;;;;;;;0.98;0.73;;;;;;;25.49;44.74;101122.78;5172138;28;20049;-83
2022/08/02 11:37:10;;;;;;;0.57;0.45;;;;;;;25.60;45.25;101119.19;5116225;28;20092;-84
2022/08/02 11:39:49;;;;;;;0.35;0.35;;;;;;;25.82;44.70;101106.63;5126719;28;20058;-83
2022/08/02 11:42:21;;;;;;;0.57;0.40;;;;;;;25.82;44.87;101112.84;5153662;28;20050;-83
2022/08/02 11:44:53;;;;;;;0.28;0.28;;;;;;;25.82;44.72;101112.84;5148957;28;20030;-83
2022/08/02 11:47:23;;;;;;;0.15;0.15;;;;;;;25.93;43.75;101111.91;5148267;28;20030;-85
2022/08/02 11:50:16;;;;;;;0.55;0.55;;;;;;;25.83;44.77;101111.84;5139151;28;20039;-83
2022/08/02 11:52:46;;;;;;;0.30;0.30;;;;;;;25.91;43.45;101111.19;5155046;28;20060;-85
2022/08/02 11:55:17;;;;;;;0.35;0.35;;;;;;;25.86;45.21;101113.44;5154151;28;20042;-82
2022/08/02 11:57:49;;;;;;;0.70;0.65;;;;;;;25.94;44.51;101108.25;5143516;28;20053;-83
2022/08/02 12:00:23;;;;;;;0.30;0.30;;;;;;;25.91;44.00;101111.19;5143738;28;20519;-83